KSTS/STS METAR and TAF weather

Enter ICAO airport designator
Station Type Date Time Source
KSTS METAR 2019/07/17 17:53 UTC NOAA

KSTS 171753Z 00000KT 10SM CLR 23/14 A2990 RMK AO2 SLP119 T02280139 10228 20122 50000


Station Type Date Time Source
KSTS Decoded METAR 2019/07/17 17:53 UTC NOAA

SANTA ROSA SONOMA COUNTY, CA, United States (KSTS) 38-30N 122-49W 39M
Jul 17, 2019 - 01:53 PM EDT / 2019.07.17 1753 UTC
Wind: Calm:0
Visibility: 10 mile(s):0
Sky conditions: clear
Temperature: 73.0 F (22.8 C)
Dew Point: 57.0 F (13.9 C)
Relative Humidity: 57%
Pressure (altimeter): 29.9 in. Hg (1012 hPa)
Pressure tendency: 0.00 inches (0.0 hPa) higher than three hours ago
ob: KSTS 171753Z 00000KT 10SM CLR 23/14 A2990 RMK AO2 SLP119 T02280139 10228 20122 50000
cycle: 18

Station Type Date Time Source
KSTS TAF 2019/07/17 18:39 UTC NOAA

TAF KSTS 171736Z 1718/1818 VRB04KT P6SM SKC
FM172200 29008KT P6SM SKC
FM180600 VRB03KT P6SM SKC
FM181000 VRB03KT P6SM FEW004

Example: see airport list